Time;durP1;ratioP1;P1;durP2;ratioP2;P2;SDS_P1;SDS_P2;PMS_P1;PMS_P2;Temp;Humidity;BMP_temperature;BMP_pressure;BME280_temperature;BME280_humidity;BME280_pressure;Samples;Min_cycle;Max_cycle;Signal;HPM_P1;HPM_P2
2022/05/18 00:02:23;;;;;;;98.25;22.25;;;;;;;;;;5011767;28;20199;-47
2022/05/18 00:04:49;;;;;;;88.25;21.17;;;;;;;;;;5010439;28;20216;-47
2022/05/18 00:07:15;;;;;;;110.72;24.17;;;;;;;;;;5012884;28;20751;-47
2022/05/18 00:09:41;;;;;;;145.85;31.05;;;;;;;;;;5005476;28;20327;-47
2022/05/18 00:12:08;;;;;;;167.88;35.60;;;;;;;;;;5003796;28;21981;-47
2022/05/18 00:14:34;;;;;;;88.85;21.25;;;;;;;;;;5005634;28;20223;-47
2022/05/18 00:17:03;;;;;;;77.63;17.70;;;;;;;;;;5010189;28;20200;-47
2022/05/18 00:19:29;;;;;;;105.15;23.40;;;;;;;;;;5006520;28;20751;-47
2022/05/18 00:21:55;;;;;;;90.13;21.85;;;;;;;;;;5013816;28;20241;-48
2022/05/18 00:24:21;;;;;;;156.32;32.20;;;;;;;;;;5000305;28;20258;-47
2022/05/18 00:26:47;;;;;;;51.97;13.48;;;;;;;;;;5005543;28;20459;-47
2022/05/18 00:29:13;;;;;;;115.00;24.40;;;;;;;;;;5005871;28;20207;-47
2022/05/18 00:31:41;;;;;;;141.57;28.40;;;;;;;;;;5002989;28;20252;-47
2022/05/18 00:34:06;;;;;;;138.38;28.00;;;;;;;;;;5000741;28;20233;-47
2022/05/18 00:36:32;;;;;;;96.45;21.38;;;;;;;;;;5005747;28;20531;-47
2022/05/18 00:38:58;;;;;;;84.90;20.00;;;;;;;;;;5006195;28;20209;-47
2022/05/18 00:41:27;;;;;;;158.47;31.67;;;;;;;;;;5004213;28;20444;-46
2022/05/18 00:43:54;;;;;;;103.43;22.35;;;;;;;;;;5003712;28;20285;-47
2022/05/18 00:46:20;;;;;;;89.28;20.48;;;;;;;;;;5010602;28;20221;-47
2022/05/18 00:48:46;;;;;;;93.22;21.20;;;;;;;;;;5001363;28;20220;-47
2022/05/18 00:51:17;;;;;;;105.60;22.92;;;;;;;;;;5010162;28;20700;-47
2022/05/18 00:54:03;;;;;;;92.88;20.95;;;;;;;;;;5005097;28;20598;-47
2022/05/18 00:56:43;;;;;;;117.97;25.20;;;;;;;;;;5002833;28;20181;-47
2022/05/18 00:59:10;;;;;;;74.47;18.25;;;;;;;;;;5009722;28;20220;-47
2022/05/18 01:01:37;;;;;;;113.47;23.75;;;;;;;;;;5013304;28;20208;-47
2022/05/18 01:04:03;;;;;;;102.82;22.88;;;;;;;;;;5017835;28;20229;-47
2022/05/18 01:06:40;;;;;;;102.10;21.70;;;;;;;;;;5011080;28;20227;-47
2022/05/18 01:09:20;;;;;;;93.70;21.13;;;;;;;;;;5007505;28;20243;-47
2022/05/18 01:11:46;;;;;;;127.43;25.38;;;;;;;;;;5009178;28;20191;-47
2022/05/18 01:14:30;;;;;;;116.80;24.23;;;;;;;;;;5007629;28;20212;-47
2022/05/18 01:16:56;;;;;;;154.48;29.48;;;;;;;;;;5010357;28;20719;-47
2022/05/18 01:19:35;;;;;;;110.32;23.02;;;;;;;;;;5011693;28;20205;-47
2022/05/18 01:22:16;;;;;;;137.35;29.30;;;;;;;;;;5009657;28;20208;-47
2022/05/18 01:25:00;;;;;;;95.93;22.33;;;;;;;;;;5004512;28;20306;-47
2022/05/18 01:27:27;;;;;;;97.03;21.90;;;;;;;;;;5006175;28;20268;-47
2022/05/18 01:29:53;;;;;;;86.37;19.50;;;;;;;;;;5008497;28;20221;-47
2022/05/18 01:32:20;;;;;;;98.57;21.60;;;;;;;;;;5013189;28;20185;-47
2022/05/18 01:34:46;;;;;;;128.53;27.47;;;;;;;;;;5010223;28;20581;-47
2022/05/18 01:37:13;;;;;;;111.07;24.08;;;;;;;;;;5007349;28;20216;-47
2022/05/18 01:39:53;;;;;;;107.03;23.70;;;;;;;;;;5011814;28;20220;-47
2022/05/18 01:42:28;;;;;;;121.25;26.52;;;;;;;;;;5011762;28;20226;-47
2022/05/18 01:44:54;;;;;;;106.72;22.85;;;;;;;;;;5004855;28;20660;-47
2022/05/18 01:47:20;;;;;;;98.70;21.05;;;;;;;;;;5009818;28;20221;-47
2022/05/18 01:49:47;;;;;;;96.78;21.23;;;;;;;;;;5009545;28;20220;-47
2022/05/18 01:52:13;;;;;;;112.93;24.92;;;;;;;;;;5008867;28;20269;-47
2022/05/18 01:54:41;;;;;;;63.90;15.43;;;;;;;;;;5007047;28;20318;-47
2022/05/18 01:57:07;;;;;;;110.82;24.15;;;;;;;;;;5009349;28;20631;-47
2022/05/18 01:59:33;;;;;;;80.35;19.33;;;;;;;;;;5009100;28;20180;-47
2022/05/18 02:01:59;;;;;;;140.63;28.97;;;;;;;;;;5007737;28;20192;-47
2022/05/18 02:04:25;;;;;;;79.97;18.63;;;;;;;;;;5001134;28;20540;-47
2022/05/18 02:06:51;;;;;;;79.75;18.63;;;;;;;;;;5007864;28;21080;-47
2022/05/18 02:09:19;;;;;;;113.33;24.37;;;;;;;;;;5005133;28;20270;-47
2022/05/18 02:11:45;;;;;;;111.65;23.55;;;;;;;;;;5010666;28;20227;-47
2022/05/18 02:14:11;;;;;;;97.18;20.67;;;;;;;;;;5002450;28;20294;-47
2022/05/18 02:16:37;;;;;;;78.03;17.33;;;;;;;;;;5008826;28;20323;-48
2022/05/18 02:19:03;;;;;;;109.13;22.50;;;;;;;;;;5009808;28;20710;-47
2022/05/18 02:21:29;;;;;;;169.93;32.03;;;;;;;;;;5003962;28;20209;-47
2022/05/18 02:23:55;;;;;;;84.23;18.93;;;;;;;;;;5011031;28;20216;-47
2022/05/18 02:26:21;;;;;;;140.43;27.23;;;;;;;;;;5009230;28;20192;-47
2022/05/18 02:28:48;;;;;;;114.37;23.70;;;;;;;;;;5008666;28;20294;-47
2022/05/18 02:31:15;;;;;;;88.37;18.30;;;;;;;;;;5007644;28;20504;-47
2022/05/18 02:33:41;;;;;;;110.87;21.93;;;;;;;;;;5007190;28;20236;-47
2022/05/18 02:36:08;;;;;;;87.40;19.17;;;;;;;;;;5010031;28;20262;-47
2022/05/18 02:38:34;;;;;;;96.60;19.70;;;;;;;;;;5005589;28;20303;-47
2022/05/18 02:41:01;;;;;;;131.27;24.60;;;;;;;;;;5007614;28;20702;-47
2022/05/18 02:43:27;;;;;;;115.60;21.93;;;;;;;;;;5004121;28;20244;-47
2022/05/18 02:46:07;;;;;;;89.43;18.05;;;;;;;;;;5008195;28;20665;-47
2022/05/18 02:48:33;;;;;;;100.33;20.37;;;;;;;;;;5000033;28;20677;-47
2022/05/18 02:50:59;;;;;;;137.95;25.90;;;;;;;;;;5004739;28;20243;-47
2022/05/18 02:53:25;;;;;;;146.93;28.13;;;;;;;;;;5007341;28;20231;-47
2022/05/18 02:56:06;;;;;;;123.20;23.73;;;;;;;;;;5006537;28;20224;-47
2022/05/18 02:58:52;;;;;;;93.93;19.00;;;;;;;;;;5008428;28;20220;-46
2022/05/18 03:01:20;;;;;;;90.30;18.23;;;;;;;;;;5007941;28;20243;-47
2022/05/18 03:03:46;;;;;;;82.07;17.90;;;;;;;;;;5010054;28;20217;-47
2022/05/18 03:06:12;;;;;;;80.07;17.23;;;;;;;;;;5009161;28;20238;-47
2022/05/18 03:08:39;;;;;;;114.20;22.53;;;;;;;;;;5009044;28;20184;-47
2022/05/18 03:11:05;;;;;;;73.88;15.65;;;;;;;;;;5008971;28;20279;-47
2022/05/18 03:13:31;;;;;;;123.20;22.30;;;;;;;;;;5010719;28;20236;-47
2022/05/18 03:15:57;;;;;;;91.82;18.77;;;;;;;;;;5004780;28;20215;-47
2022/05/18 03:18:24;;;;;;;84.17;16.73;;;;;;;;;;4999480;28;20224;-47
2022/05/18 03:23:35;;;;;;;77.83;16.60;;;;;;;;;;5010375;28;20192;-46
2022/05/18 03:26:18;;;;;;;57.90;13.33;;;;;;;;;;5011989;28;20192;-47
2022/05/18 03:28:45;;;;;;;64.03;14.83;;;;;;;;;;5011875;28;20220;-47
2022/05/18 03:31:11;;;;;;;76.53;15.85;;;;;;;;;;5009692;28;20216;-47
2022/05/18 03:33:38;;;;;;;96.60;18.87;;;;;;;;;;5009222;28;20684;-47
2022/05/18 03:36:05;;;;;;;123.90;23.03;;;;;;;;;;5012407;28;20544;-47
2022/05/18 03:38:31;;;;;;;118.33;23.73;;;;;;;;;;5003401;28;20203;-47
2022/05/18 03:40:57;;;;;;;96.80;20.43;;;;;;;;;;5007177;28;20185;-47
2022/05/18 03:43:23;;;;;;;64.60;16.10;;;;;;;;;;5006906;28;20216;-47
2022/05/18 03:45:49;;;;;;;77.40;16.20;;;;;;;;;;5010443;28;20219;-47
2022/05/18 03:48:16;;;;;;;64.67;14.87;;;;;;;;;;5011128;28;20211;-47
2022/05/18 03:50:44;;;;;;;98.40;20.50;;;;;;;;;;5009102;28;20192;-47
2022/05/18 03:53:11;;;;;;;84.97;17.93;;;;;;;;;;5010031;28;20231;-47
2022/05/18 03:55:38;;;;;;;68.50;16.37;;;;;;;;;;5014180;28;20223;-47
2022/05/18 03:58:04;;;;;;;91.20;18.43;;;;;;;;;;5017026;28;20224;-47
2022/05/18 04:00:30;;;;;;;53.53;13.48;;;;;;;;;;5017197;28;20685;-47
2022/05/18 04:02:57;;;;;;;136.43;25.17;;;;;;;;;;5010326;28;20227;-46
2022/05/18 04:05:23;;;;;;;99.53;19.20;;;;;;;;;;5006134;28;20499;-47
2022/05/18 04:07:49;;;;;;;98.20;18.30;;;;;;;;;;5009580;28;20224;-47
2022/05/18 04:10:15;;;;;;;69.57;15.23;;;;;;;;;;5015319;28;21175;-47
2022/05/18 04:12:41;;;;;;;73.77;16.33;;;;;;;;;;5006909;28;20314;-46
2022/05/18 04:15:07;;;;;;;87.90;18.20;;;;;;;;;;5012609;28;20366;-47
2022/05/18 04:17:35;;;;;;;87.35;17.98;;;;;;;;;;5009116;28;20216;-47
2022/05/18 04:20:01;;;;;;;116.87;22.10;;;;;;;;;;5007776;28;20185;-47
2022/05/18 04:22:27;;;;;;;104.37;19.83;;;;;;;;;;5008814;28;20222;-47
2022/05/18 04:24:53;;;;;;;88.82;17.70;;;;;;;;;;5012201;28;20209;-47
2022/05/18 04:27:19;;;;;;;62.13;15.33;;;;;;;;;;5008802;28;20713;-47
2022/05/18 04:29:45;;;;;;;84.28;18.02;;;;;;;;;;5015982;28;20196;-46
2022/05/18 04:32:11;;;;;;;77.33;16.57;;;;;;;;;;5006805;28;20220;-47
2022/05/18 04:34:38;;;;;;;120.55;23.38;;;;;;;;;;5007376;28;20220;-47
2022/05/18 04:37:04;;;;;;;66.73;14.60;;;;;;;;;;5007703;28;20343;-47
2022/05/18 04:39:30;;;;;;;82.35;17.48;;;;;;;;;;5010253;28;20217;-47
2022/05/18 04:41:56;;;;;;;163.73;28.50;;;;;;;;;;5007023;28;20824;-47
2022/05/18 04:44:22;;;;;;;97.33;18.60;;;;;;;;;;5014627;28;20201;-47
2022/05/18 04:46:48;;;;;;;105.80;20.73;;;;;;;;;;5008410;28;20225;-47
2022/05/18 04:49:14;;;;;;;105.28;19.35;;;;;;;;;;5007187;28;20217;-47
2022/05/18 04:51:40;;;;;;;105.10;19.90;;;;;;;;;;5011621;28;20243;-46
2022/05/18 04:54:06;;;;;;;82.38;16.88;;;;;;;;;;5013312;28;20235;-47
2022/05/18 04:56:32;;;;;;;85.13;17.25;;;;;;;;;;5010698;28;20818;-47
2022/05/18 04:58:58;;;;;;;86.20;17.40;;;;;;;;;;5005023;28;20544;-47
2022/05/18 05:01:26;;;;;;;131.80;24.93;;;;;;;;;;5008953;28;20231;-47
2022/05/18 05:03:52;;;;;;;117.75;22.67;;;;;;;;;;5005930;28;20209;-47
2022/05/18 05:06:18;;;;;;;66.53;15.10;;;;;;;;;;5009154;28;20308;-47
2022/05/18 05:08:44;;;;;;;51.33;13.10;;;;;;;;;;5011653;28;20351;-46
2022/05/18 05:11:10;;;;;;;108.40;21.17;;;;;;;;;;5010009;28;20561;-47
2022/05/18 05:13:36;;;;;;;89.97;17.90;;;;;;;;;;5001371;28;20220;-47
2022/05/18 05:16:09;;;;;;;125.80;23.67;;;;;;;;;;5009508;28;20472;-47
2022/05/18 05:18:35;;;;;;;78.43;16.45;;;;;;;;;;5009419;28;20660;-47
2022/05/18 05:21:01;;;;;;;75.18;15.20;;;;;;;;;;5006723;28;20227;-47
2022/05/18 05:23:28;;;;;;;65.18;13.95;;;;;;;;;;5012711;28;20776;-47
2022/05/18 05:25:54;;;;;;;135.68;25.70;;;;;;;;;;5011639;28;20216;-47
2022/05/18 05:28:20;;;;;;;95.53;20.50;;;;;;;;;;5005644;28;20800;-47
2022/05/18 05:30:47;;;;;;;66.88;14.98;;;;;;;;;;5010392;28;20565;-47
2022/05/18 05:33:13;;;;;;;53.45;14.25;;;;;;;;;;5023451;28;20228;-47
2022/05/18 05:35:42;;;;;;;69.25;16.63;;;;;;;;;;5013240;28;20586;-47
2022/05/18 05:38:09;;;;;;;60.70;14.13;;;;;;;;;;5023434;28;20196;-47
2022/05/18 05:40:35;;;;;;;94.40;18.85;;;;;;;;;;5012250;28;20209;-48
2022/05/18 05:43:06;;;;;;;44.50;12.30;;;;;;;;;;5006425;28;20331;-47
2022/05/18 05:45:32;;;;;;;58.60;13.45;;;;;;;;;;5013840;28;20580;-48
2022/05/18 05:47:58;;;;;;;71.78;16.63;;;;;;;;;;5027774;28;20266;-48
2022/05/18 05:50:25;;;;;;;58.15;14.85;;;;;;;;;;5024285;28;20190;-48
2022/05/18 05:52:51;;;;;;;65.00;14.20;;;;;;;;;;5028935;28;20216;-48
2022/05/18 05:55:17;;;;;;;57.47;13.77;;;;;;;;;;5029037;28;20544;-48
2022/05/18 05:57:43;;;;;;;75.95;16.95;;;;;;;;;;5028904;28;20220;-49
2022/05/18 06:00:09;;;;;;;71.82;16.20;;;;;;;;;;5028252;28;20222;-48
2022/05/18 06:02:35;;;;;;;66.40;15.32;;;;;;;;;;5028256;28;20668;-49
2022/05/18 06:05:03;;;;;;;67.20;15.30;;;;;;;;;;5014309;28;20216;-48
2022/05/18 06:07:29;;;;;;;81.10;16.70;;;;;;;;;;5008676;28;20700;-47
2022/05/18 06:09:55;;;;;;;49.67;12.13;;;;;;;;;;5010395;28;20267;-47
2022/05/18 06:12:22;;;;;;;36.95;10.68;;;;;;;;;;5009548;28;20661;-48
2022/05/18 06:14:49;;;;;;;75.03;16.05;;;;;;;;;;5009495;28;20196;-47
2022/05/18 06:17:15;;;;;;;71.03;16.50;;;;;;;;;;5006191;28;20665;-48
2022/05/18 06:19:41;;;;;;;70.00;16.65;;;;;;;;;;5007109;28;20310;-52
2022/05/18 06:22:07;;;;;;;66.57;16.25;;;;;;;;;;5008794;28;20213;-48
2022/05/18 06:24:33;;;;;;;81.13;17.48;;;;;;;;;;5007544;28;20216;-48
2022/05/18 06:26:59;;;;;;;66.22;15.13;;;;;;;;;;5007922;28;20223;-48
2022/05/18 06:29:26;;;;;;;49.78;13.57;;;;;;;;;;5023708;28;20184;-47
2022/05/18 06:31:52;;;;;;;78.20;16.77;;;;;;;;;;5026557;28;20247;-48
2022/05/18 06:34:21;;;;;;;90.07;18.88;;;;;;;;;;5007002;28;20783;-47
2022/05/18 06:36:47;;;;;;;73.55;17.13;;;;;;;;;;5017435;28;20235;-46
2022/05/18 06:39:13;;;;;;;72.00;17.48;;;;;;;;;;5008595;28;20595;-45
2022/05/18 06:41:39;;;;;;;72.25;17.17;;;;;;;;;;5008844;28;20257;-44
2022/05/18 06:44:05;;;;;;;63.08;16.02;;;;;;;;;;5009956;28;20184;-44
2022/05/18 06:46:32;;;;;;;32.22;10.65;;;;;;;;;;5009011;28;20311;-45
2022/05/18 06:48:58;;;;;;;59.55;14.82;;;;;;;;;;5008258;28;20219;-45
2022/05/18 06:51:25;;;;;;;54.03;14.05;;;;;;;;;;5008769;28;20228;-45
2022/05/18 06:53:52;;;;;;;65.45;14.65;;;;;;;;;;5009079;28;20229;-49
2022/05/18 06:56:19;;;;;;;48.55;13.05;;;;;;;;;;5028542;28;20355;-47
2022/05/18 06:58:46;;;;;;;59.30;14.18;;;;;;;;;;5029644;28;20299;-47
2022/05/18 07:01:12;;;;;;;59.58;14.38;;;;;;;;;;5028873;28;20228;-46
2022/05/18 07:03:38;;;;;;;54.88;13.90;;;;;;;;;;5029937;28;20814;-47
2022/05/18 07:06:05;;;;;;;54.65;13.60;;;;;;;;;;5036236;28;20297;-46
2022/05/18 07:08:31;;;;;;;51.22;13.48;;;;;;;;;;5049129;28;20192;-47
2022/05/18 07:10:57;;;;;;;92.40;19.98;;;;;;;;;;5036556;28;20315;-48
2022/05/18 07:13:23;;;;;;;49.75;13.90;;;;;;;;;;5027184;28;20224;-48
2022/05/18 07:15:49;;;;;;;52.47;13.95;;;;;;;;;;5030187;28;20258;-48
2022/05/18 07:18:15;;;;;;;66.97;16.55;;;;;;;;;;5029132;28;20299;-48
2022/05/18 07:20:42;;;;;;;43.22;11.02;;;;;;;;;;5029236;28;20175;-48
2022/05/18 07:23:08;;;;;;;61.65;14.20;;;;;;;;;;5030248;28;20609;-48
2022/05/18 07:25:34;;;;;;;52.33;13.38;;;;;;;;;;5029694;28;20561;-48
2022/05/18 07:28:00;;;;;;;57.88;14.75;;;;;;;;;;5029375;28;20204;-47
2022/05/18 07:30:26;;;;;;;57.13;14.32;;;;;;;;;;5028580;28;20208;-48
2022/05/18 07:32:52;;;;;;;26.23;8.95;;;;;;;;;;5029307;28;20734;-48
2022/05/18 07:35:18;;;;;;;68.18;16.25;;;;;;;;;;5029330;28;20164;-47
2022/05/18 07:37:44;;;;;;;61.17;14.82;;;;;;;;;;5027044;28;20309;-48
2022/05/18 07:40:10;;;;;;;56.97;14.52;;;;;;;;;;5027648;28;20212;-47
2022/05/18 07:42:38;;;;;;;58.70;14.48;;;;;;;;;;5028497;28;20265;-48
2022/05/18 07:45:04;;;;;;;51.90;14.20;;;;;;;;;;5028246;28;20300;-48
2022/05/18 07:47:31;;;;;;;47.90;12.38;;;;;;;;;;5028633;28;20585;-47
2022/05/18 07:49:58;;;;;;;55.33;14.65;;;;;;;;;;5028759;28;20230;-48
2022/05/18 07:52:24;;;;;;;62.60;15.77;;;;;;;;;;5029052;28;20354;-47
2022/05/18 07:54:50;;;;;;;70.13;15.57;;;;;;;;;;5029703;28;20300;-48
2022/05/18 07:57:17;;;;;;;75.85;17.40;;;;;;;;;;5046130;28;20234;-47
2022/05/18 07:59:43;;;;;;;55.60;14.23;;;;;;;;;;5028829;28;20518;-47
2022/05/18 08:02:09;;;;;;;63.55;15.10;;;;;;;;;;5012603;28;20637;-48
2022/05/18 08:04:35;;;;;;;49.75;12.88;;;;;;;;;;5027863;28;20665;-47
2022/05/18 08:07:00;;;;;;;49.90;13.23;;;;;;;;;;5027721;28;20231;-47
2022/05/18 08:09:26;;;;;;;69.22;17.42;;;;;;;;;;5027798;28;20295;-47
2022/05/18 08:17:23;;;;;;;49.10;13.10;;;;;;;;;;5028471;28;20286;-47
2022/05/18 08:19:49;;;;;;;44.15;11.98;;;;;;;;;;5028205;28;20684;-48
2022/05/18 08:22:17;;;;;;;40.92;11.52;;;;;;;;;;5028251;28;20208;-48
2022/05/18 08:24:43;;;;;;;49.30;13.45;;;;;;;;;;5027853;28;20781;-49
2022/05/18 08:27:13;;;;;;;66.25;16.05;;;;;;;;;;5027508;28;20558;-47
2022/05/18 08:29:39;;;;;;;66.95;16.70;;;;;;;;;;5026190;28;20251;-48
2022/05/18 08:32:05;;;;;;;55.00;14.77;;;;;;;;;;5028350;28;20719;-48
2022/05/18 08:34:31;;;;;;;67.32;17.08;;;;;;;;;;5027383;28;20231;-48
2022/05/18 08:36:58;;;;;;;71.40;17.52;;;;;;;;;;5027493;28;20271;-47
2022/05/18 08:39:24;;;;;;;58.90;14.93;;;;;;;;;;5026606;28;20208;-47
2022/05/18 08:41:51;;;;;;;71.65;17.48;;;;;;;;;;5026421;28;20235;-47
2022/05/18 08:44:36;;;;;;;90.53;19.77;;;;;;;;;;5027163;28;20475;-47
2022/05/18 08:47:16;;;;;;;69.13;16.65;;;;;;;;;;5026276;28;20295;-48
2022/05/18 08:49:56;;;;;;;43.50;12.23;;;;;;;;;;5027824;28;20220;-48
2022/05/18 08:52:54;;;;;;;51.85;14.23;;;;;;;;;;5028490;28;20726;-47
2022/05/18 08:55:35;;;;;;;49.92;13.43;;;;;;;;;;5005528;28;20259;-48
2022/05/18 08:58:02;;;;;;;69.43;17.40;;;;;;;;;;5026560;28;20231;-48
2022/05/18 09:00:30;;;;;;;28.85;9.88;;;;;;;;;;5027593;28;20633;-48
2022/05/18 09:03:04;;;;;;;70.93;16.73;;;;;;;;;;5027660;28;20371;-48
2022/05/18 09:05:37;;;;;;;55.78;14.55;;;;;;;;;;5028075;28;20175;-47
2022/05/18 09:08:10;;;;;;;54.75;15.35;;;;;;;;;;5026425;28;20223;-48
2022/05/18 09:10:44;;;;;;;53.95;14.00;;;;;;;;;;5027877;28;20247;-48
2022/05/18 09:13:10;;;;;;;41.53;12.50;;;;;;;;;;5027580;28;20701;-48
2022/05/18 09:15:40;;;;;;;36.80;12.00;;;;;;;;;;5026246;28;20307;-48
2022/05/18 09:18:12;;;;;;;64.10;15.90;;;;;;;;;;5027256;28;20219;-47
2022/05/18 09:20:41;;;;;;;70.38;18.73;;;;;;;;;;5025810;28;20177;-48
2022/05/18 09:23:07;;;;;;;60.45;16.52;;;;;;;;;;5028983;28;20192;-48
2022/05/18 09:25:33;;;;;;;61.45;16.67;;;;;;;;;;5029099;28;20239;-48
2022/05/18 09:28:00;;;;;;;95.53;22.55;;;;;;;;;;5028970;28;20240;-47
2022/05/18 09:30:36;;;;;;;82.43;19.80;;;;;;;;;;5029112;28;20290;-48
2022/05/18 09:33:11;;;;;;;62.03;16.00;;;;;;;;;;5009179;28;20284;-47
2022/05/18 09:36:00;;;;;;;69.97;18.65;;;;;;;;;;5024615;28;20176;-47
2022/05/18 09:38:33;;;;;;;78.90;20.02;;;;;;;;;;5030588;28;20200;-48
2022/05/18 09:41:00;;;;;;;58.65;15.73;;;;;;;;;;5029641;28;20346;-47
2022/05/18 09:43:46;;;;;;;83.78;20.55;;;;;;;;;;5027921;28;20235;-48
2022/05/18 09:46:13;;;;;;;77.07;19.67;;;;;;;;;;5028701;28;20212;-48
2022/05/18 09:49:11;;;;;;;70.53;18.88;;;;;;;;;;5028722;28;20220;-48
2022/05/18 09:51:37;;;;;;;102.80;23.42;;;;;;;;;;5004351;28;20247;-48
2022/05/18 09:54:03;;;;;;;63.05;16.30;;;;;;;;;;5028775;28;20220;-48
2022/05/18 09:56:52;;;;;;;67.20;17.30;;;;;;;;;;5028825;28;20184;-48
2022/05/18 09:59:21;;;;;;;80.05;20.10;;;;;;;;;;5029285;28;20238;-46
2022/05/18 10:07:27;;;;;;;56.45;15.48;;;;;;;;;;5030432;28;20282;-48
2022/05/18 10:09:59;;;;;;;90.72;22.38;;;;;;;;;;5029056;28;20274;-49
2022/05/18 10:12:31;;;;;;;74.65;19.67;;;;;;;;;;5027927;28;20723;-48
2022/05/18 10:14:58;;;;;;;64.35;16.55;;;;;;;;;;5021572;28;20387;-48
2022/05/18 10:17:30;;;;;;;78.25;19.65;;;;;;;;;;5028061;28;20239;-48
2022/05/18 10:20:02;;;;;;;88.60;22.42;;;;;;;;;;5028424;28;20262;-49
2022/05/18 10:22:30;;;;;;;92.05;22.15;;;;;;;;;;5028966;28;20333;-48
2022/05/18 10:25:05;;;;;;;92.82;23.60;;;;;;;;;;5028698;28;20282;-48
2022/05/18 10:27:35;;;;;;;83.45;21.27;;;;;;;;;;5028373;28;20322;-48
2022/05/18 10:30:08;;;;;;;62.85;17.08;;;;;;;;;;5029014;28;20223;-48
2022/05/18 10:32:34;;;;;;;78.20;21.17;;;;;;;;;;5027758;28;20204;-48
2022/05/18 10:35:01;;;;;;;87.35;21.83;;;;;;;;;;5020958;28;20224;-49
2022/05/18 10:37:37;;;;;;;74.95;19.52;;;;;;;;;;5009104;28;20201;-48
2022/05/18 10:40:03;;;;;;;82.90;20.17;;;;;;;;;;5009467;28;20333;-45
2022/05/18 10:42:50;;;;;;;119.95;26.80;;;;;;;;;;5006369;28;20328;-45
2022/05/18 10:45:28;;;;;;;69.63;17.73;;;;;;;;;;5010551;28;20271;-45
2022/05/18 10:47:55;;;;;;;60.28;16.83;;;;;;;;;;5010684;28;20545;-45
2022/05/18 10:50:23;;;;;;;75.93;20.05;;;;;;;;;;5010099;28;20209;-45
2022/05/18 10:52:49;;;;;;;52.72;14.95;;;;;;;;;;5010271;28;20231;-45
2022/05/18 10:55:17;;;;;;;63.97;16.98;;;;;;;;;;5009967;28;20236;-45
2022/05/18 10:58:00;;;;;;;68.20;17.58;;;;;;;;;;5010440;28;20225;-45
2022/05/18 11:00:31;;;;;;;84.93;21.33;;;;;;;;;;5008591;28;20208;-45
2022/05/18 11:03:07;;;;;;;60.00;16.02;;;;;;;;;;5010082;28;20244;-45
2022/05/18 11:05:54;;;;;;;102.60;24.13;;;;;;;;;;5009120;28;20184;-45
2022/05/18 11:08:22;;;;;;;74.57;19.45;;;;;;;;;;5010151;28;20284;-45
2022/05/18 11:10:53;;;;;;;67.40;16.80;;;;;;;;;;5010445;28;20267;-45
2022/05/18 11:13:26;;;;;;;71.32;19.10;;;;;;;;;;5009534;28;20225;-45
2022/05/18 11:16:11;;;;;;;94.35;22.65;;;;;;;;;;5007970;28;20224;-45
2022/05/18 11:18:37;;;;;;;89.30;22.33;;;;;;;;;;5007144;28;20217;-45
2022/05/18 11:21:06;;;;;;;72.47;19.02;;;;;;;;;;5009593;28;20354;-49
2022/05/18 11:23:39;;;;;;;59.83;16.50;;;;;;;;;;5009887;28;20177;-45
2022/05/18 11:26:11;;;;;;;104.68;25.58;;;;;;;;;;5007613;28;20660;-45
2022/05/18 11:28:53;;;;;;;81.90;20.40;;;;;;;;;;5007013;28;20216;-45
2022/05/18 11:31:41;;;;;;;111.63;26.10;;;;;;;;;;5006806;28;20255;-45
2022/05/18 11:34:10;;;;;;;85.88;22.25;;;;;;;;;;5006974;28;20694;-45
2022/05/18 11:36:46;;;;;;;75.82;20.52;;;;;;;;;;5006518;28;20228;-46
2022/05/18 11:39:30;;;;;;;58.55;18.00;;;;;;;;;;5007171;28;20267;-45
2022/05/18 11:42:22;;;;;;;59.92;17.70;;;;;;;;;;5009140;28;20708;-45
2022/05/18 11:44:59;;;;;;;74.03;19.70;;;;;;;;;;5007668;28;20161;-45
2022/05/18 11:47:34;;;;;;;79.88;20.40;;;;;;;;;;5010158;28;20200;-45
2022/05/18 11:50:12;;;;;;;88.63;21.55;;;;;;;;;;5009520;28;20283;-45
2022/05/18 11:52:43;;;;;;;64.10;16.63;;;;;;;;;;5009529;28;20716;-45
2022/05/18 11:55:29;;;;;;;67.13;18.42;;;;;;;;;;5009190;28;20228;-45
2022/05/18 11:58:01;;;;;;;66.20;17.90;;;;;;;;;;5009065;28;20259;-45
2022/05/18 12:03:26;;;;;;;41.75;13.60;;;;;;;;;;5009296;28;20212;-45
2022/05/18 12:06:17;;;;;;;78.60;20.83;;;;;;;;;;5009180;28;20220;-45
2022/05/18 12:08:46;;;;;;;63.50;19.23;;;;;;;;;;5008843;28;20200;-45
2022/05/18 12:11:31;;;;;;;76.20;20.90;;;;;;;;;;5009908;28;20177;-45
2022/05/18 12:14:00;;;;;;;41.55;14.35;;;;;;;;;;5009376;28;20350;-45
2022/05/18 12:16:26;;;;;;;63.95;18.33;;;;;;;;;;5009027;28;20282;-45
2022/05/18 12:19:06;;;;;;;70.85;20.48;;;;;;;;;;5008799;28;20216;-46
2022/05/18 12:21:40;;;;;;;77.90;22.75;;;;;;;;;;5009498;28;20227;-46
2022/05/18 12:24:08;;;;;;;68.30;21.25;;;;;;;;;;5009048;28;20259;-46
2022/05/18 12:26:35;;;;;;;75.88;23.05;;;;;;;;;;5008609;28;20685;-45
2022/05/18 12:29:03;;;;;;;66.93;20.73;;;;;;;;;;5008986;28;20196;-45
2022/05/18 12:31:29;;;;;;;97.78;28.48;;;;;;;;;;5008004;28;20231;-46
2022/05/18 12:34:01;;;;;;;84.32;24.60;;;;;;;;;;5007119;28;20584;-46
2022/05/18 12:36:41;;;;;;;67.60;21.48;;;;;;;;;;5008446;28;20244;-46
2022/05/18 12:39:25;;;;;;;53.22;19.55;;;;;;;;;;5008577;28;20212;-46
2022/05/18 12:41:54;;;;;;;77.95;25.50;;;;;;;;;;5007172;28;20224;-45
2022/05/18 12:44:25;;;;;;;66.95;22.15;;;;;;;;;;5009039;28;20185;-45
2022/05/18 12:47:04;;;;;;;76.43;24.02;;;;;;;;;;5008040;28;20311;-45
2022/05/18 12:49:41;;;;;;;81.68;26.33;;;;;;;;;;5008294;28;20244;-45
2022/05/18 12:52:25;;;;;;;111.82;31.98;;;;;;;;;;5005891;28;20231;-45
2022/05/18 12:54:53;;;;;;;118.57;34.38;;;;;;;;;;5007379;28;20697;-46
2022/05/18 12:57:45;;;;;;;56.47;21.95;;;;;;;;;;5005462;28;20224;-45
2022/05/18 13:00:20;;;;;;;71.60;24.30;;;;;;;;;;5008227;28;20209;-45
2022/05/18 13:03:09;;;;;;;72.03;25.98;;;;;;;;;;5008218;28;20180;-46
2022/05/18 13:05:35;;;;;;;104.50;33.78;;;;;;;;;;5007636;28;20180;-46
2022/05/18 13:08:24;;;;;;;101.53;33.75;;;;;;;;;;5007751;28;20641;-45
2022/05/18 13:11:10;;;;;;;99.53;35.30;;;;;;;;;;5001190;28;20288;-45
2022/05/18 13:13:55;;;;;;;88.97;32.42;;;;;;;;;;5007228;28;20247;-46
2022/05/18 13:16:39;;;;;;;70.13;30.10;;;;;;;;;;5007830;28;20558;-46
2022/05/18 13:19:12;;;;;;;70.57;33.35;;;;;;;;;;5008041;28;20270;-46
2022/05/18 13:21:39;;;;;;;91.38;38.55;;;;;;;;;;5006834;28;20351;-47
2022/05/18 13:24:06;;;;;;;71.50;35.13;;;;;;;;;;5007900;28;20208;-46
2022/05/18 13:26:35;;;;;;;73.75;35.22;;;;;;;;;;5007907;28;20623;-46
2022/05/18 13:29:08;;;;;;;71.00;39.20;;;;;;;;;;5008832;28;20188;-45
2022/05/18 13:31:35;;;;;;;75.53;39.60;;;;;;;;;;5008177;28;20712;-46
2022/05/18 13:34:09;;;;;;;82.38;43.95;;;;;;;;;;5008249;28;20734;-46
2022/05/18 13:36:47;;;;;;;58.25;44.47;;;;;;;;;;5008340;28;20307;-46
2022/05/18 13:39:18;;;;;;;68.80;41.60;;;;;;;;;;5006108;28;20215;-46
2022/05/18 13:41:46;;;;;;;95.22;45.40;;;;;;;;;;5006976;28;20150;-47
2022/05/18 13:44:12;;;;;;;73.65;40.08;;;;;;;;;;5006121;28;20268;-46
2022/05/18 13:46:38;;;;;;;177.60;161.57;;;;;;;;;;5007675;28;20252;-45
2022/05/18 13:49:07;;;;;;;243.25;220.10;;;;;;;;;;5007434;28;20696;-46
2022/05/18 13:51:40;;;;;;;222.57;202.88;;;;;;;;;;5007384;28;20664;-46
2022/05/18 13:54:08;;;;;;;193.38;178.15;;;;;;;;;;5006972;28;20233;-46
2022/05/18 13:56:36;;;;;;;220.52;200.82;;;;;;;;;;5006837;28;20276;-46
2022/05/18 13:59:03;;;;;;;226.88;207.02;;;;;;;;;;5007717;28;20211;-46
2022/05/18 14:01:31;;;;;;;214.30;196.35;;;;;;;;;;5006110;28;20230;-46
2022/05/18 14:03:58;;;;;;;236.82;217.73;;;;;;;;;;5007453;28;20212;-46
2022/05/18 14:06:24;;;;;;;234.20;215.68;;;;;;;;;;5007401;28;20649;-46
2022/05/18 14:09:04;;;;;;;263.13;239.68;;;;;;;;;;5006222;28;20586;-46
2022/05/18 14:11:30;;;;;;;273.73;248.63;;;;;;;;;;5009426;28;20184;-46
2022/05/18 14:13:57;;;;;;;297.00;270.42;;;;;;;;;;5008090;28;20565;-46
2022/05/18 14:16:30;;;;;;;288.33;265.90;;;;;;;;;;5010678;28;20221;-47
2022/05/18 14:18:57;;;;;;;326.60;298.98;;;;;;;;;;5009305;28;20220;-47
2022/05/18 14:21:24;;;;;;;348.92;320.75;;;;;;;;;;5009919;28;20216;-47
2022/05/18 14:24:03;;;;;;;381.77;344.10;;;;;;;;;;5008312;28;20200;-47
2022/05/18 14:26:33;;;;;;;368.90;337.13;;;;;;;;;;5009744;28;20184;-47
2022/05/18 14:29:00;;;;;;;368.95;335.15;;;;;;;;;;5010888;28;20244;-46
2022/05/18 14:31:27;;;;;;;395.00;357.02;;;;;;;;;;5008628;28;20228;-47
2022/05/18 14:34:00;;;;;;;414.75;373.27;;;;;;;;;;5009284;28;20602;-47
2022/05/18 14:36:28;;;;;;;425.73;385.35;;;;;;;;;;5008618;28;20212;-47
2022/05/18 14:38:57;;;;;;;460.70;417.42;;;;;;;;;;5008449;28;20215;-47
2022/05/18 14:41:25;;;;;;;467.42;423.42;;;;;;;;;;5010027;28;20366;-47
2022/05/18 14:43:55;;;;;;;481.58;435.85;;;;;;;;;;5009816;28;20244;-47
2022/05/18 14:46:21;;;;;;;483.05;438.40;;;;;;;;;;5008030;28;20239;-47